Time;durP1;ratioP1;P1;durP2;ratioP2;P2;SDS_P1;SDS_P2;PMS_P1;PMS_P2;Temp;Humidity;BMP_temperature;BMP_pressure;BME280_temperature;BME280_humidity;BME280_pressure;Samples;Min_cycle;Max_cycle;Signal;HPM_P1;HPM_P2
2022/09/24 00:00:44;;;;;;;4.13;3.93;;;13.20;99.90;;;;;;5113080;28;20200;-50
2022/09/24 00:03:11;;;;;;;6.07;4.27;;;13.10;99.90;;;;;;5112762;28;20286;-49
2022/09/24 00:05:41;;;;;;;4.47;4.27;;;13.10;99.90;;;;;;5112992;28;20196;-49
2022/09/24 00:08:08;;;;;;;4.43;4.07;;;13.10;99.90;;;;;;5105678;28;20770;-49
2022/09/24 00:10:38;;;;;;;4.47;4.13;;;13.10;99.90;;;;;;5107419;28;20203;-48
2022/09/24 00:13:05;;;;;;;5.63;4.50;;;13.10;99.90;;;;;;5104916;28;20196;-49
2022/09/24 00:15:36;;;;;;;6.23;4.60;;;13.10;99.90;;;;;;5113109;28;20235;-49
2022/09/24 00:18:04;;;;;;;4.73;4.37;;;13.20;99.90;;;;;;5112963;28;20302;-49
2022/09/24 00:20:31;;;;;;;4.60;4.37;;;13.20;99.90;;;;;;5112821;28;20204;-49
2022/09/24 00:23:00;;;;;;;5.20;4.43;;;13.20;99.90;;;;;;5103240;28;20204;-49
2022/09/24 00:28:12;;;;;;;5.07;4.70;;;13.20;99.90;;;;;;5105833;28;20218;-50
2022/09/24 00:30:40;;;;;;;10.10;4.87;;;13.20;99.90;;;;;;5112563;28;20751;-50
2022/09/24 00:33:07;;;;;;;4.17;3.80;;;13.20;99.90;;;;;;5103729;28;20203;-49
2022/09/24 00:35:34;;;;;;;5.13;4.83;;;13.20;99.90;;;;;;5108803;28;20237;-50
2022/09/24 00:38:04;;;;;;;6.13;4.73;;;13.20;99.90;;;;;;5101429;28;20215;-50
2022/09/24 00:40:33;;;;;;;4.97;4.47;;;13.20;99.90;;;;;;5108203;28;20227;-50
2022/09/24 00:43:00;;;;;;;5.17;4.60;;;13.20;99.90;;;;;;5110822;28;20199;-48
2022/09/24 00:45:29;;;;;;;4.73;4.33;;;13.30;99.90;;;;;;5112254;28;20245;-50
2022/09/24 00:47:58;;;;;;;4.30;4.00;;;13.30;99.90;;;;;;5104377;28;20231;-50
2022/09/24 00:50:30;;;;;;;4.87;4.67;;;13.30;99.90;;;;;;5111040;28;20273;-51
2022/09/24 00:53:03;;;;;;;6.33;5.70;;;13.30;99.90;;;;;;5112183;28;20222;-50
2022/09/24 00:55:35;;;;;;;4.63;4.33;;;13.30;99.90;;;;;;5112559;28;20190;-50
2022/09/24 00:58:07;;;;;;;5.47;4.97;;;13.30;99.90;;;;;;5112357;28;20219;-50
2022/09/24 01:00:34;;;;;;;4.33;4.03;;;13.30;99.90;;;;;;5108945;28;20727;-49
2022/09/24 01:03:04;;;;;;;4.63;4.23;;;13.40;99.90;;;;;;5111983;28;20738;-50
2022/09/24 01:05:32;;;;;;;4.10;3.83;;;13.40;99.90;;;;;;5112294;28;20207;-50
2022/09/24 01:07:59;;;;;;;4.33;4.03;;;13.30;99.90;;;;;;5106103;28;20219;-49
2022/09/24 01:10:47;;;;;;;4.10;3.80;;;13.40;99.90;;;;;;5111881;28;20253;-50
2022/09/24 01:13:29;;;;;;;3.00;2.77;;;13.40;99.90;;;;;;5101266;28;20256;-50
2022/09/24 01:16:02;;;;;;;3.60;3.23;;;13.30;99.90;;;;;;5112148;28;20256;-49
2022/09/24 01:18:38;;;;;;;4.17;3.30;;;13.40;99.90;;;;;;5112331;28;20226;-51
2022/09/24 01:21:32;;;;;;;3.67;3.33;;;13.50;99.90;;;;;;5112507;28;20195;-50
2022/09/24 01:24:25;;;;;;;3.87;3.57;;;13.40;99.90;;;;;;5106516;28;20202;-50
2022/09/24 01:27:02;;;;;;;4.13;3.30;;;13.30;99.90;;;;;;5111351;27;20328;-51
2022/09/24 01:29:40;;;;;;;3.50;3.30;;;13.20;99.90;;;;;;5110904;28;20275;-50
2022/09/24 01:32:13;;;;;;;3.97;3.67;;;13.10;99.90;;;;;;5107771;28;20216;-50
2022/09/24 01:34:44;;;;;;;3.90;3.03;;;13.00;99.90;;;;;;5116011;28;20227;-50
2022/09/24 01:37:14;;;;;;;3.30;3.00;;;12.90;99.90;;;;;;5110245;28;20286;-52
2022/09/24 01:39:44;;;;;;;4.27;3.87;;;12.80;99.90;;;;;;5113017;27;20223;-51
2022/09/24 01:42:12;;;;;;;3.60;3.37;;;12.70;99.90;;;;;;5115085;28;20191;-51
2022/09/24 01:44:43;;;;;;;3.03;2.83;;;12.70;99.90;;;;;;5103851;28;20203;-51
2022/09/24 01:47:13;;;;;;;4.40;4.03;;;12.60;99.90;;;;;;5107853;28;20221;-51
2022/09/24 01:49:40;;;;;;;4.40;4.00;;;12.60;99.90;;;;;;5107443;28;20232;-50
2022/09/24 01:52:10;;;;;;;4.13;3.83;;;12.60;99.90;;;;;;5115889;28;20211;-50
2022/09/24 01:54:41;;;;;;;4.17;3.80;;;12.70;99.90;;;;;;5111206;28;20777;-51
2022/09/24 01:57:14;;;;;;;4.23;3.87;;;12.70;99.90;;;;;;5115743;28;20211;-49
2022/09/24 01:59:47;;;;;;;4.40;4.10;;;12.80;99.90;;;;;;5113339;28;20223;-48
2022/09/24 02:02:20;;;;;;;4.30;3.73;;;12.80;99.90;;;;;;5111991;28;20192;-48
2022/09/24 02:04:53;;;;;;;5.03;4.27;;;12.90;99.90;;;;;;5115240;28;20192;-49
2022/09/24 02:07:27;;;;;;;4.03;3.27;;;12.90;99.90;;;;;;5115365;28;20681;-49
2022/09/24 02:09:54;;;;;;;2.83;2.73;;;13.00;99.90;;;;;;5115357;28;20711;-50
2022/09/24 02:12:28;;;;;;;3.20;2.90;;;13.10;99.90;;;;;;5107481;28;20693;-50
2022/09/24 02:15:02;;;;;;;4.40;2.73;;;13.10;99.90;;;;;;5107287;28;20196;-50
2022/09/24 02:17:32;;;;;;;3.33;3.20;;;13.10;99.90;;;;;;5111205;28;20547;-49
2022/09/24 02:20:04;;;;;;;2.60;2.50;;;13.10;99.90;;;;;;5114805;28;20220;-49
2022/09/24 02:22:32;;;;;;;4.37;3.40;;;13.10;99.90;;;;;;5114365;28;20245;-51
2022/09/24 02:25:01;;;;;;;3.67;3.43;;;13.10;99.90;;;;;;5114716;28;20203;-51
2022/09/24 02:27:28;;;;;;;3.10;3.00;;;13.10;99.90;;;;;;5113516;27;20199;-48
2022/09/24 02:29:57;;;;;;;3.93;3.73;;;13.00;99.90;;;;;;5115586;27;20192;-49
2022/09/24 02:32:29;;;;;;;3.60;3.30;;;13.00;99.90;;;;;;5109962;28;20216;-49
2022/09/24 02:35:01;;;;;;;3.73;3.33;;;13.00;99.90;;;;;;5113756;28;20293;-50
2022/09/24 02:37:29;;;;;;;4.17;3.87;;;13.00;99.90;;;;;;5114856;28;20195;-49
2022/09/24 02:39:56;;;;;;;3.77;3.57;;;13.00;99.90;;;;;;5102302;28;20200;-48
2022/09/24 02:42:23;;;;;;;3.07;2.87;;;13.00;99.90;;;;;;5101583;28;20196;-50
2022/09/24 02:44:51;;;;;;;3.80;3.60;;;13.00;99.90;;;;;;5111827;28;20652;-50
2022/09/24 02:47:19;;;;;;;5.10;3.50;;;13.00;99.90;;;;;;5113559;28;20283;-50
2022/09/24 02:49:46;;;;;;;3.80;3.50;;;13.00;99.90;;;;;;5117104;27;20215;-48
2022/09/24 02:52:14;;;;;;;4.50;3.40;;;13.10;99.90;;;;;;5134972;27;20218;-48
2022/09/24 02:54:41;;;;;;;3.90;3.70;;;13.20;99.90;;;;;;5134873;27;20695;-50
2022/09/24 02:57:08;;;;;;;3.53;3.27;;;13.20;99.90;;;;;;5113202;27;20657;-48
2022/09/24 02:59:35;;;;;;;3.63;3.37;;;13.20;99.90;;;;;;5108399;28;20220;-48
2022/09/24 03:02:03;;;;;;;3.50;3.30;;;13.30;99.90;;;;;;5105927;28;20623;-50
2022/09/24 03:04:31;;;;;;;4.63;3.70;;;13.20;99.90;;;;;;5109616;28;20664;-49
2022/09/24 03:06:58;;;;;;;3.70;3.47;;;13.30;99.90;;;;;;5114300;28;20252;-49
2022/09/24 03:09:25;;;;;;;3.53;3.33;;;13.30;99.90;;;;;;5110748;28;20224;-49
2022/09/24 03:11:52;;;;;;;5.00;3.57;;;13.40;99.90;;;;;;5114287;28;20212;-48
2022/09/24 03:14:19;;;;;;;3.90;3.70;;;13.50;99.90;;;;;;5106787;28;20246;-49
2022/09/24 03:16:46;;;;;;;3.53;3.37;;;13.40;99.90;;;;;;5109605;28;20253;-48
2022/09/24 03:19:13;;;;;;;3.13;3.03;;;13.30;99.90;;;;;;5110515;28;20228;-49
2022/09/24 03:21:42;;;;;;;3.03;2.83;;;13.30;99.90;;;;;;5113524;28;20204;-50
2022/09/24 03:24:09;;;;;;;3.73;3.53;;;13.20;99.90;;;;;;5113701;28;20214;-50
2022/09/24 03:26:36;;;;;;;2.93;2.77;;;13.20;99.90;;;;;;5113685;28;20218;-49
2022/09/24 03:29:04;;;;;;;2.83;2.57;;;13.20;99.90;;;;;;5111080;27;20269;-49
2022/09/24 03:31:30;;;;;;;3.23;3.03;;;13.10;99.90;;;;;;5109984;28;20195;-48
2022/09/24 03:33:58;;;;;;;3.73;2.57;;;13.10;99.90;;;;;;5113635;28;20219;-48
2022/09/24 03:36:26;;;;;;;3.50;3.23;;;13.10;99.90;;;;;;5113775;28;20206;-48
2022/09/24 03:38:56;;;;;;;3.87;3.50;;;13.00;99.90;;;;;;5113662;28;20311;-48
2022/09/24 03:41:26;;;;;;;3.73;3.27;;;13.00;99.90;;;;;;5112038;27;20674;-49
2022/09/24 03:43:54;;;;;;;4.53;4.23;;;12.90;99.90;;;;;;5112953;28;20203;-48
2022/09/24 03:46:23;;;;;;;4.40;4.10;;;12.90;99.90;;;;;;5113293;28;20291;-49
2022/09/24 03:48:51;;;;;;;4.83;4.63;;;12.80;99.90;;;;;;5108966;28;20229;-48
2022/09/24 03:51:19;;;;;;;4.40;4.20;;;12.80;99.90;;;;;;5113489;28;20192;-49
2022/09/24 03:53:47;;;;;;;5.80;5.37;;;12.70;99.90;;;;;;5109347;28;20302;-48
2022/09/24 03:56:16;;;;;;;5.23;4.83;;;12.70;99.90;;;;;;5106758;28;20196;-48
2022/09/24 03:58:46;;;;;;;4.27;4.07;;;12.70;99.90;;;;;;5103318;28;20224;-49
2022/09/24 04:01:16;;;;;;;4.77;4.30;;;12.70;99.90;;;;;;5109246;28;20234;-49
2022/09/24 04:03:43;;;;;;;3.90;3.70;;;12.70;99.90;;;;;;5110264;28;20289;-49
2022/09/24 04:06:10;;;;;;;5.17;4.77;;;12.70;99.90;;;;;;5092636;28;20665;-49
2022/09/24 04:08:37;;;;;;;4.97;3.80;;;12.70;99.90;;;;;;5092554;28;20216;-49
2022/09/24 04:11:05;;;;;;;3.43;3.27;;;12.70;99.90;;;;;;5104709;28;20728;-49
2022/09/24 04:13:33;;;;;;;3.43;3.23;;;12.70;99.90;;;;;;5112595;28;20223;-50
2022/09/24 04:16:02;;;;;;;3.67;3.10;;;12.70;99.90;;;;;;5113064;28;20299;-49
2022/09/24 04:18:32;;;;;;;3.67;3.50;;;12.70;99.90;;;;;;5112605;28;20318;-49
2022/09/24 04:21:00;;;;;;;4.00;3.80;;;12.70;99.90;;;;;;5107938;28;20238;-49
2022/09/24 04:23:30;;;;;;;3.30;3.10;;;12.70;99.90;;;;;;5103645;28;20705;-49
2022/09/24 04:25:59;;;;;;;5.47;4.20;;;12.70;99.90;;;;;;5109329;28;20253;-49
2022/09/24 04:28:29;;;;;;;4.40;4.10;;;12.70;99.90;;;;;;5112303;28;20214;-48
2022/09/24 04:30:58;;;;;;;4.17;3.83;;;12.70;99.90;;;;;;5112742;28;20212;-49
2022/09/24 04:33:28;;;;;;;4.57;4.33;;;12.60;99.90;;;;;;5106823;28;20242;-49
2022/09/24 04:35:55;;;;;;;3.83;3.63;;;12.60;99.90;;;;;;5111493;28;20199;-49
2022/09/24 04:38:22;;;;;;;4.30;3.93;;;12.70;99.90;;;;;;5104457;28;20220;-50
2022/09/24 04:40:49;;;;;;;8.43;4.70;;;12.70;99.90;;;;;;5099998;28;20571;-49
2022/09/24 04:43:17;;;;;;;4.43;4.23;;;12.70;99.90;;;;;;5096396;28;20197;-48
2022/09/24 04:45:45;;;;;;;4.00;3.70;;;12.60;99.90;;;;;;5102920;28;20210;-48
2022/09/24 04:48:14;;;;;;;4.10;3.90;;;12.60;99.90;;;;;;5109537;28;20216;-49
2022/09/24 04:50:41;;;;;;;4.53;4.23;;;12.70;99.90;;;;;;5107715;28;20208;-49
2022/09/24 04:53:08;;;;;;;4.20;4.00;;;12.70;99.90;;;;;;5101248;28;20214;-48
2022/09/24 04:55:35;;;;;;;4.97;4.67;;;12.70;99.90;;;;;;5103038;28;20681;-49
2022/09/24 04:58:03;;;;;;;8.47;6.67;;;12.70;99.90;;;;;;5106328;28;20216;-48
2022/09/24 05:00:32;;;;;;;7.33;6.63;;;12.70;99.90;;;;;;5112036;28;20195;-49
2022/09/24 05:03:02;;;;;;;4.60;3.53;;;12.70;99.90;;;;;;5112197;28;20194;-48
2022/09/24 05:05:31;;;;;;;4.23;4.03;;;12.70;99.90;;;;;;5112183;28;20203;-48
2022/09/24 05:08:00;;;;;;;5.13;4.70;;;12.70;99.90;;;;;;5105539;28;20692;-49
2022/09/24 05:10:28;;;;;;;4.37;4.17;;;12.70;99.90;;;;;;5105181;28;20196;-50
2022/09/24 05:12:55;;;;;;;5.70;5.30;;;12.70;99.90;;;;;;5108130;28;20223;-49
2022/09/24 05:15:22;;;;;;;6.17;5.67;;;12.70;99.90;;;;;;5111757;28;20202;-49
2022/09/24 05:17:50;;;;;;;6.70;6.13;;;12.60;99.90;;;;;;5106347;28;20204;-49
2022/09/24 05:20:18;;;;;;;5.57;5.17;;;12.60;99.90;;;;;;5104285;28;20214;-49
2022/09/24 05:22:48;;;;;;;5.10;4.80;;;12.70;99.90;;;;;;5111351;28;20201;-49
2022/09/24 05:25:17;;;;;;;6.13;5.53;;;12.70;99.90;;;;;;5104140;28;20222;-48
2022/09/24 05:27:45;;;;;;;6.23;5.60;;;12.80;99.90;;;;;;5106189;28;20210;-48
2022/09/24 05:30:13;;;;;;;5.70;5.30;;;12.90;99.90;;;;;;5107422;28;20242;-48
2022/09/24 05:32:40;;;;;;;5.10;4.80;;;12.80;99.90;;;;;;5111674;28;20222;-49
2022/09/24 05:35:08;;;;;;;5.77;5.27;;;12.80;99.90;;;;;;5102483;28;20244;-48
2022/09/24 05:37:36;;;;;;;5.20;4.90;;;12.70;99.90;;;;;;5109427;28;20694;-49
2022/09/24 05:42:49;;;;;;;4.83;4.63;;;12.60;99.90;;;;;;5098552;28;20195;-48
2022/09/24 05:45:20;;;;;;;6.80;6.38;;;12.60;99.90;;;;;;5106843;28;20427;-48
2022/09/24 05:47:48;;;;;;;5.97;5.47;;;12.70;99.90;;;;;;5101157;28;20264;-48
2022/09/24 05:50:17;;;;;;;5.47;5.17;;;12.80;99.90;;;;;;5111330;28;20246;-48
2022/09/24 05:52:44;;;;;;;5.20;4.83;;;12.90;99.90;;;;;;5104047;28;20265;-49
2022/09/24 05:55:14;;;;;;;5.47;5.17;;;12.80;99.90;;;;;;5107151;28;20542;-49
2022/09/24 05:57:42;;;;;;;6.23;5.63;;;12.80;99.90;;;;;;5107802;28;20681;-48
2022/09/24 06:00:10;;;;;;;6.40;5.00;;;12.70;99.90;;;;;;5101168;28;20191;-49
2022/09/24 06:02:38;;;;;;;8.60;5.80;;;12.70;99.90;;;;;;5101794;28;20245;-49
2022/09/24 06:05:06;;;;;;;8.80;7.37;;;12.60;99.90;;;;;;5110159;28;20281;-49
2022/09/24 06:07:34;;;;;;;6.80;6.23;;;12.60;99.90;;;;;;5105902;28;20636;-48
2022/09/24 06:10:01;;;;;;;7.13;6.57;;;12.60;99.90;;;;;;5099027;28;20212;-48
2022/09/24 06:12:33;;;;;;;8.13;6.30;;;12.60;99.90;;;;;;5110258;27;20230;-48
2022/09/24 06:15:01;;;;;;;9.47;8.57;;;12.60;99.90;;;;;;5113224;28;20196;-48
2022/09/24 06:17:28;;;;;;;6.70;6.17;;;12.60;99.90;;;;;;5106420;28;20204;-49
2022/09/24 06:19:56;;;;;;;7.77;7.00;;;12.50;99.90;;;;;;5112117;28;20223;-48
2022/09/24 06:22:24;;;;;;;7.10;6.47;;;12.50;99.90;;;;;;5114675;28;20198;-48
2022/09/24 06:24:51;;;;;;;6.23;5.83;;;12.50;99.90;;;;;;5109164;28;20702;-48
2022/09/24 06:27:20;;;;;;;11.53;10.27;;;12.50;99.90;;;;;;5110995;28;20623;-48
2022/09/24 06:29:51;;;;;;;8.17;6.47;;;12.50;99.90;;;;;;5114846;27;20862;-48
2022/09/24 06:32:19;;;;;;;10.47;9.70;;;12.50;99.90;;;;;;5110637;28;20733;-48
2022/09/24 06:34:48;;;;;;;7.70;7.00;;;12.50;99.90;;;;;;5112013;28;20898;-48
2022/09/24 06:37:16;;;;;;;6.40;5.93;;;12.50;99.90;;;;;;5107408;28;20206;-47
2022/09/24 06:39:43;;;;;;;6.67;6.17;;;12.50;99.90;;;;;;5113098;28;20248;-48
2022/09/24 06:42:15;;;;;;;6.63;5.93;;;12.50;99.90;;;;;;5109715;28;20202;-49
2022/09/24 06:44:43;;;;;;;6.40;5.97;;;12.40;99.90;;;;;;5114067;28;20664;-48
2022/09/24 06:47:14;;;;;;;7.03;6.43;;;12.40;99.90;;;;;;5113806;28;20212;-47
2022/09/24 06:49:41;;;;;;;11.67;10.67;;;12.40;99.90;;;;;;5113658;28;20219;-47
2022/09/24 06:52:10;;;;;;;9.23;8.37;;;12.40;99.90;;;;;;5113652;28;20218;-48
2022/09/24 06:54:39;;;;;;;7.33;6.63;;;12.40;99.90;;;;;;5109349;28;20227;-47
2022/09/24 06:57:08;;;;;;;9.63;7.10;;;12.40;99.90;;;;;;5106659;27;20207;-48
2022/09/24 06:59:36;;;;;;;7.83;7.07;;;12.50;99.90;;;;;;5110790;28;20247;-48
2022/09/24 07:02:03;;;;;;;10.93;8.70;;;12.50;99.90;;;;;;5097699;28;21087;-48
2022/09/24 07:04:33;;;;;;;6.33;5.93;;;12.50;99.90;;;;;;5101941;28;20196;-48
2022/09/24 07:09:45;;;;;;;14.63;13.03;;;12.70;99.90;;;;;;5103092;28;20696;-48
2022/09/24 07:12:12;;;;;;;13.93;12.50;;;12.70;99.90;;;;;;5104156;27;20228;-47
2022/09/24 07:14:39;;;;;;;10.97;10.07;;;12.80;99.90;;;;;;5110945;28;20272;-48
2022/09/24 07:17:07;;;;;;;9.93;9.00;;;12.80;99.90;;;;;;5106979;28;20199;-48
2022/09/24 07:19:37;;;;;;;11.43;10.33;;;12.90;99.90;;;;;;5112638;28;20677;-48
2022/09/24 07:22:04;;;;;;;11.13;9.70;;;12.80;99.90;;;;;;5100372;28;20688;-48
2022/09/24 07:24:32;;;;;;;10.67;9.70;;;12.80;99.90;;;;;;5101281;28;20203;-49
2022/09/24 07:27:00;;;;;;;11.57;10.60;;;12.70;99.90;;;;;;5098535;28;20233;-48
2022/09/24 07:29:28;;;;;;;12.87;11.03;;;12.80;99.90;;;;;;5104329;28;20225;-48
2022/09/24 07:31:55;;;;;;;12.23;9.43;;;12.80;99.90;;;;;;5111580;28;20282;-47
2022/09/24 07:34:23;;;;;;;15.07;9.80;;;12.90;99.90;;;;;;5094523;28;20252;-48
2022/09/24 07:36:51;;;;;;;11.50;10.17;;;12.90;99.90;;;;;;5103102;28;20199;-48
2022/09/24 07:39:20;;;;;;;10.27;8.80;;;13.00;99.90;;;;;;5104316;28;20230;-49
2022/09/24 07:41:47;;;;;;;9.80;7.93;;;13.00;99.90;;;;;;5096795;28;20283;-48
2022/09/24 07:44:14;;;;;;;8.33;7.67;;;13.10;99.90;;;;;;5111527;28;20573;-48
2022/09/24 07:46:41;;;;;;;8.47;7.77;;;13.10;99.90;;;;;;5109208;28;20227;-48
2022/09/24 07:49:08;;;;;;;8.90;8.20;;;13.20;99.90;;;;;;5105749;28;20219;-48
2022/09/24 07:51:35;;;;;;;8.97;8.10;;;13.20;99.90;;;;;;5104199;28;20283;-48
2022/09/24 07:54:04;;;;;;;12.40;11.20;;;13.10;99.90;;;;;;5108257;28;20225;-48
2022/09/24 07:56:32;;;;;;;15.00;13.57;;;13.10;99.90;;;;;;5108663;28;20284;-47
2022/09/24 07:58:59;;;;;;;10.03;9.10;;;13.20;99.90;;;;;;5112993;28;20725;-49
2022/09/24 08:01:26;;;;;;;7.93;7.43;;;13.20;99.90;;;;;;5111241;28;20209;-50
2022/09/24 08:03:53;;;;;;;11.10;9.27;;;13.20;99.90;;;;;;5102167;28;20250;-50
2022/09/24 08:06:21;;;;;;;9.80;8.90;;;13.30;99.90;;;;;;5106740;28;20201;-49
2022/09/24 08:08:49;;;;;;;11.97;8.43;;;13.30;99.90;;;;;;5108162;28;20224;-49
2022/09/24 08:11:18;;;;;;;9.33;7.53;;;13.40;99.90;;;;;;5104391;28;20199;-49
2022/09/24 08:13:45;;;;;;;9.10;8.17;;;13.30;99.90;;;;;;5105556;28;20223;-49
2022/09/24 08:16:12;;;;;;;8.80;7.97;;;13.30;99.90;;;;;;5111058;28;20199;-50
2022/09/24 08:18:40;;;;;;;10.77;6.90;;;13.30;99.90;;;;;;5109671;28;20247;-50
2022/09/24 08:21:10;;;;;;;7.87;7.10;;;13.30;99.90;;;;;;5109671;28;20195;-50
2022/09/24 08:23:38;;;;;;;6.07;5.70;;;13.40;99.90;;;;;;5097001;28;20284;-50
2022/09/24 08:26:06;;;;;;;9.20;8.37;;;13.40;99.90;;;;;;5106530;28;20258;-50
2022/09/24 08:28:35;;;;;;;8.17;7.33;;;13.40;99.90;;;;;;5100049;28;20570;-50
2022/09/24 08:31:06;;;;;;;8.27;7.50;;;13.50;99.90;;;;;;5097383;28;20208;-50
2022/09/24 08:33:33;;;;;;;7.90;7.17;;;13.50;99.90;;;;;;5108223;28;20226;-50
2022/09/24 08:36:01;;;;;;;8.90;8.10;;;13.50;99.90;;;;;;5106801;28;20199;-51
2022/09/24 08:38:31;;;;;;;9.53;8.63;;;13.60;99.90;;;;;;5101555;28;20219;-50
2022/09/24 08:41:10;;;;;;;12.53;10.10;;;13.70;99.90;;;;;;5109376;28;20282;-49
2022/09/24 08:43:50;;;;;;;9.10;7.90;;;13.80;99.90;;;;;;5108069;28;20196;-49
2022/09/24 08:49:10;;;;;;;6.10;5.57;;;14.10;99.90;;;;;;5104383;28;20599;-50
2022/09/24 08:51:47;;;;;;;6.03;5.63;;;14.20;99.90;;;;;;5105227;28;20199;-49
2022/09/24 08:54:15;;;;;;;7.27;6.77;;;14.40;99.90;;;;;;5104587;28;20243;-50
2022/09/24 08:56:46;;;;;;;8.67;7.03;;;14.50;99.90;;;;;;5110410;28;20215;-49
2022/09/24 08:59:26;;;;;;;7.77;7.17;;;14.70;99.90;;;;;;5104016;28;20288;-51
2022/09/24 09:02:03;;;;;;;7.83;7.33;;;14.80;99.90;;;;;;5106616;28;20268;-50
2022/09/24 09:04:38;;;;;;;8.10;7.50;;;15.00;99.90;;;;;;5111737;28;20191;-51
2022/09/24 09:07:16;;;;;;;7.63;6.93;;;15.30;99.90;;;;;;5096565;28;20212;-50
2022/09/24 09:09:48;;;;;;;7.67;7.07;;;15.40;99.90;;;;;;5107032;28;20287;-51
2022/09/24 09:12:21;;;;;;;8.27;6.03;;;15.60;99.90;;;;;;5111887;28;20244;-50
2022/09/24 09:14:58;;;;;;;5.47;5.23;;;15.80;99.90;;;;;;5102631;28;20314;-50
2022/09/24 09:17:34;;;;;;;5.60;5.10;;;16.00;99.90;;;;;;5107805;28;20198;-50
2022/09/24 09:20:07;;;;;;;6.20;5.80;;;16.30;99.90;;;;;;5105448;28;20207;-50
2022/09/24 09:22:42;;;;;;;6.60;6.13;;;16.50;99.90;;;;;;5108056;28;20226;-49
2022/09/24 09:25:18;;;;;;;7.90;7.27;;;17.00;99.90;;;;;;5091393;28;20203;-50
2022/09/24 09:27:47;;;;;;;7.27;6.80;;;17.40;99.90;;;;;;5106868;28;20207;-50
2022/09/24 09:30:18;;;;;;;7.03;6.53;;;17.60;99.90;;;;;;5111810;28;20742;-50
2022/09/24 09:32:58;;;;;;;7.33;6.93;;;17.70;99.90;;;;;;5097184;28;20769;-50
2022/09/24 09:35:31;;;;;;;7.00;6.40;;;17.60;99.90;;;;;;5102034;28;20274;-50
2022/09/24 09:38:06;;;;;;;6.40;6.03;;;17.50;99.90;;;;;;5100840;28;20220;-50
2022/09/24 09:40:40;;;;;;;8.60;6.60;;;17.50;99.90;;;;;;5110952;28;20665;-51
2022/09/24 09:43:10;;;;;;;8.07;7.40;;;17.50;99.90;;;;;;5103285;28;20196;-50
2022/09/24 09:45:46;;;;;;;6.10;5.70;;;17.40;99.90;;;;;;5114043;28;20257;-50
2022/09/24 09:48:15;;;;;;;6.53;6.13;;;17.30;99.90;;;;;;5111856;28;20219;-50
2022/09/24 09:50:46;;;;;;;7.00;6.60;;;17.30;99.90;;;;;;5104053;28;20232;-50
2022/09/24 09:53:21;;;;;;;6.33;5.97;;;17.40;99.90;;;;;;5115164;28;20204;-50
2022/09/24 09:55:53;;;;;;;7.93;6.47;;;17.40;99.90;;;;;;5109705;28;20284;-50
2022/09/24 09:58:24;;;;;;;6.53;6.03;;;17.30;99.90;;;;;;5105450;28;20294;-49
2022/09/24 10:00:53;;;;;;;7.37;7.00;;;17.40;99.90;;;;;;5111639;28;20204;-50
2022/09/24 10:03:29;;;;;;;6.50;6.03;;;17.30;99.90;;;;;;5104748;28;20192;-50
2022/09/24 10:05:59;;;;;;;7.03;6.53;;;17.30;99.90;;;;;;5104259;28;20218;-50
2022/09/24 10:08:30;;;;;;;6.50;6.10;;;17.20;99.90;;;;;;5115190;28;20212;-50
2022/09/24 10:10:58;;;;;;;7.83;7.30;;;17.10;99.90;;;;;;5115263;28;20203;-50
2022/09/24 10:13:27;;;;;;;7.17;6.50;;;17.10;99.90;;;;;;5105695;28;20245;-49
2022/09/24 10:15:57;;;;;;;6.17;5.87;;;17.10;99.90;;;;;;5112066;28;20308;-50
2022/09/24 10:18:33;;;;;;;6.30;5.90;;;17.10;99.90;;;;;;5106767;28;20223;-51
2022/09/24 10:21:03;;;;;;;7.67;7.10;;;17.10;99.90;;;;;;5109936;28;20286;-51
2022/09/24 10:23:36;;;;;;;7.03;6.50;;;17.20;99.90;;;;;;5096994;28;20612;-49
2022/09/24 10:26:04;;;;;;;8.13;7.53;;;17.10;99.90;;;;;;5106214;28;20241;-50
2022/09/24 10:31:22;;;;;;;7.13;6.57;;;17.30;99.90;;;;;;5110323;28;20214;-51
2022/09/24 10:33:51;;;;;;;7.27;6.80;;;17.40;99.90;;;;;;5106464;28;20208;-51
2022/09/24 10:36:21;;;;;;;7.57;6.97;;;17.50;99.90;;;;;;5114474;28;20219;-50
2022/09/24 10:38:48;;;;;;;9.20;8.37;;;17.70;99.90;;;;;;5101497;27;20220;-50
2022/09/24 10:41:24;;;;;;;7.47;6.97;;;17.80;99.90;;;;;;5112016;28;20196;-50
2022/09/24 10:43:52;;;;;;;6.43;5.97;;;17.70;99.90;;;;;;5092552;28;20214;-50
2022/09/24 10:46:38;;;;;;;6.27;5.77;;;17.60;99.90;;;;;;5105478;28;20277;-50
2022/09/24 10:49:13;;;;;;;6.37;6.00;;;17.40;99.90;;;;;;5106637;28;20229;-50
2022/09/24 10:51:48;;;;;;;6.83;6.10;;;17.40;99.90;;;;;;5112187;28;20287;-50
2022/09/24 10:54:38;;;;;;;6.57;5.90;;;17.40;99.90;;;;;;5101198;28;20208;-51
2022/09/24 10:57:18;;;;;;;6.07;5.57;;;17.50;99.90;;;;;;5109288;28;20570;-51
2022/09/24 10:59:57;;;;;;;5.87;5.47;;;17.50;99.90;;;;;;5109325;28;20699;-49
2022/09/24 11:02:56;;;;;;;6.37;5.83;;;17.50;99.90;;;;;;5114262;28;20588;-50
2022/09/24 11:05:25;;;;;;;5.87;5.47;;;17.50;99.90;;;;;;5113971;28;20272;-50
2022/09/24 11:08:04;;;;;;;5.50;5.20;;;17.40;99.90;;;;;;5110493;28;20789;-50
2022/09/24 11:10:53;;;;;;;5.10;4.73;;;17.60;99.90;;;;;;5108009;28;20677;-50
2022/09/24 11:13:32;;;;;;;4.90;4.63;;;17.70;99.90;;;;;;5103359;28;20200;-49
2022/09/24 11:16:26;;;;;;;4.70;4.43;;;17.60;99.90;;;;;;5113288;28;20222;-50
2022/09/24 11:19:01;;;;;;;3.87;3.77;;;17.50;99.90;;;;;;5107391;28;20229;-50
2022/09/24 11:21:37;;;;;;;5.23;4.53;;;17.50;99.90;;;;;;5094168;28;20207;-50
2022/09/24 11:24:27;;;;;;;4.63;4.40;;;17.40;99.90;;;;;;5105055;28;20207;-50
2022/09/24 11:27:07;;;;;;;4.43;4.23;;;17.40;99.90;;;;;;5108900;28;20211;-49
2022/09/24 11:29:55;;;;;;;5.43;4.17;;;17.20;99.90;;;;;;5109441;28;20306;-50
2022/09/24 11:32:31;;;;;;;6.10;5.50;;;17.20;99.90;;;;;;5099663;28;20220;-51
2022/09/24 11:35:35;;;;;;;5.83;5.40;;;17.20;99.90;;;;;;5106571;28;20703;-49
2022/09/24 11:38:09;;;;;;;5.10;4.80;;;17.30;99.90;;;;;;5092110;28;20874;-51
2022/09/24 11:41:03;;;;;;;5.17;4.90;;;17.30;99.90;;;;;;5109918;28;20282;-51
2022/09/24 11:43:59;;;;;;;5.30;4.93;;;17.30;99.90;;;;;;5101851;28;20192;-49
2022/09/24 11:46:40;;;;;;;7.03;6.27;;;17.10;99.90;;;;;;5108446;28;20661;-49
2022/09/24 11:49:28;;;;;;;10.37;9.10;;;17.20;99.90;;;;;;5109026;27;20216;-50
2022/09/24 11:52:04;;;;;;;13.80;10.67;;;17.30;99.90;;;;;;5112564;28;20249;-49
2022/09/24 11:54:36;;;;;;;6.90;6.13;;;17.10;99.90;;;;;;5113172;28;20220;-50
2022/09/24 11:57:14;;;;;;;5.80;5.30;;;17.20;99.90;;;;;;5104816;28;20706;-50
2022/09/24 11:59:50;;;;;;;6.43;5.87;;;17.30;99.90;;;;;;5109711;28;20238;-51
2022/09/24 12:02:22;;;;;;;10.13;5.63;;;17.40;99.90;;;;;;5107621;28;20199;-49
2022/09/24 12:04:55;;;;;;;3.37;3.27;;;17.50;99.90;;;;;;5107868;28;20228;-50
2022/09/24 12:07:32;;;;;;;4.03;3.83;;;17.50;99.90;;;;;;5099118;28;20205;-50
2022/09/24 12:10:02;;;;;;;3.67;3.57;;;17.60;99.90;;;;;;5112928;28;20231;-51
2022/09/24 12:12:33;;;;;;;4.73;4.50;;;17.70;99.90;;;;;;5111017;28;20203;-50
2022/09/24 12:15:05;;;;;;;4.30;4.00;;;17.80;99.90;;;;;;5107126;28;20230;-50
2022/09/24 12:17:37;;;;;;;5.60;5.13;;;18.00;99.90;;;;;;5104923;28;20200;-49
2022/09/24 12:20:13;;;;;;;4.53;4.23;;;18.00;99.90;;;;;;5111747;28;20208;-51
2022/09/24 12:22:43;;;;;;;3.83;3.60;;;18.10;99.90;;;;;;5111462;28;20253;-50
2022/09/24 12:25:12;;;;;;;3.47;3.33;;;18.20;99.90;;;;;;5108006;28;20661;-50
2022/09/24 12:27:40;;;;;;;4.43;4.20;;;18.10;99.90;;;;;;5112729;28;20236;-49
2022/09/24 12:33:18;;;;;;;3.83;3.60;;;18.00;99.90;;;;;;5101825;28;20292;-50
2022/09/24 12:35:57;;;;;;;4.20;4.00;;;18.10;99.90;;;;;;5111684;28;20258;-50
2022/09/24 12:38:34;;;;;;;4.50;4.07;;;18.20;99.90;;;;;;5112616;27;20219;-50
2022/09/24 12:41:29;;;;;;;4.63;4.33;;;18.10;99.90;;;;;;5109542;28;20192;-50
2022/09/24 12:44:03;;;;;;;4.70;4.50;;;18.10;99.90;;;;;;5107333;28;20203;-50
2022/09/24 12:46:35;;;;;;;4.43;4.20;;;17.90;99.90;;;;;;5107300;28;20191;-50
2022/09/24 12:49:02;;;;;;;4.10;3.77;;;17.80;99.90;;;;;;5094270;28;20216;-50
2022/09/24 12:51:38;;;;;;;4.53;4.00;;;17.70;99.90;;;;;;5111092;28;20278;-51
2022/09/24 12:54:19;;;;;;;3.80;3.57;;;17.60;99.90;;;;;;5107880;28;20203;-50
2022/09/24 12:56:47;;;;;;;4.73;4.33;;;17.60;99.90;;;;;;5100311;28;20219;-50
2022/09/24 12:59:26;;;;;;;4.20;3.90;;;17.40;99.90;;;;;;5107286;28;20765;-50
2022/09/24 13:01:54;;;;;;;4.30;3.97;;;17.20;99.90;;;;;;5110766;28;20202;-50
2022/09/24 13:04:29;;;;;;;4.83;4.33;;;17.10;99.90;;;;;;5111012;28;20210;-50
2022/09/24 13:06:56;;;;;;;4.27;4.07;;;16.90;99.90;;;;;;5104940;28;20196;-50
2022/09/24 13:09:37;;;;;;;5.40;5.20;;;16.90;99.90;;;;;;5110323;28;20223;-51
2022/09/24 13:12:20;;;;;;;5.40;5.10;;;16.90;99.90;;;;;;5112168;28;20199;-49
2022/09/24 13:14:57;;;;;;;5.57;5.17;;;16.80;99.90;;;;;;5092360;28;20211;-50
2022/09/24 13:17:26;;;;;;;5.07;4.80;;;16.70;99.90;;;;;;5096142;28;20231;-49
2022/09/24 13:19:58;;;;;;;6.43;5.83;;;16.70;99.90;;;;;;5115674;28;20268;-50
2022/09/24 13:22:28;;;;;;;5.43;5.13;;;16.60;99.90;;;;;;5102674;28;20196;-49